Data for 10/04/2009

Time Sea-Level Adjusted Pressure Absolute Pressure Temperature Relative Humidity Dew Point   
(mb) (inHg) (mb) (inHg) (C) (F) (%) (C) (F)
00:05 1013 29.91 842 24.86 3.9 39 64 -2.2 28
00:10 1013 29.91 842 24.86 3.8 38.8 65 -2.1 28.2
00:15 1013 29.91 842 24.86 3.7 38.6 65 -2.3 27.9
00:20 1013 29.91 842 24.86 3.6 38.5 66 -2.2 28.1
00:25 1013 29.91 842 24.86 3.5 38.2 67 -2 28.3
00:30 1013 29.91 843 24.89 3.4 38.1 67 -2.1 28.2
00:35 1014 29.94 843 24.89 3.3 38 67 -2.1 28.2
00:40 1014 29.94 843 24.89 3.2 37.8 68 -2.2 28
00:45 1014 29.94 843 24.89 3.2 37.7 68 -2.3 27.9
00:50 1014 29.94 843 24.89 3.1 37.6 67 -2.4 27.7
00:55 1014 29.94 843 24.89 3.1 37.5 68 -2.3 27.9
01:00 1014 29.94 843 24.89 3.1 37.5 68 -2.3 27.9
01:05 1014 29.94 843 24.89 3.1 37.5 68 -2.2 28
01:10 1014 29.94 843 24.89 3 37.3 69 -2.1 28.3
01:15 1014 29.94 843 24.89 2.9 37.2 69 -2.2 28.1
01:20 1014 29.94 843 24.89 2.9 37.1 70 -2.2 28.1
01:25 1014 29.94 843 24.89 2.9 37.1 70 -2.1 28.2
01:30 1014 29.94 843 24.89 2.8 37 69 -2.2 28
01:35 1014 29.94 843 24.89 2.8 37 70 -2.1 28.2
01:40 1014 29.94 843 24.89 2.7 36.9 70 -2.2 28
01:45 1014 29.94 843 24.89 2.7 36.9 70 -2.2 28
01:50 1014 29.94 843 24.89 2.7 36.9 70 -2.2 28.1
01:55 1014 29.94 843 24.89 2.7 36.8 71 -2.1 28.3
02:00 1014 29.94 843 24.89 2.7 36.8 71 -2 28.4
02:05 1014 29.94 843 24.89 2.6 36.7 72 -2 28.4
02:10 1014 29.94 843 24.89 2.6 36.7 72 -1.9 28.5
02:15 1014 29.94 843 24.89 2.6 36.7 72 -2 28.4
02:20 1014 29.94 843 24.89 2.6 36.7 72 -1.8 28.7
02:25 1014 29.94 843 24.89 2.6 36.7 72 -1.9 28.6
02:30 1014 29.94 843 24.89 2.6 36.7 73 -1.8 28.7
02:35 1014 29.94 843 24.89 2.5 36.5 74 -1.7 28.9
02:40 1014 29.94 843 24.89 2.5 36.5 73 -1.9 28.7
02:45 1014 29.94 843 24.89 2.5 36.6 73 -1.7 28.9
02:50 1014 29.94 843 24.89 2.5 36.5 73 -1.9 28.6
02:55 1014 29.94 843 24.89 2.5 36.6 73 -1.9 28.6
03:00 1014 29.94 843 24.89 2.5 36.5 73 -1.8 28.7
03:05 1014 29.94 843 24.89 2.5 36.4 73 -1.9 28.6
03:10 1014 29.94 843 24.89 2.5 36.4 73 -1.8 28.7
03:15 1014 29.94 843 24.89 2.5 36.4 73 -1.9 28.6
03:20 1014 29.94 843 24.89 2.5 36.4 73 -1.9 28.5
03:25 1014 29.94 843 24.89 2.5 36.4 71 -2.3 27.8
03:30 1014 29.94 843 24.89 2.5 36.6 70 -2.3 27.8
03:35 1014 29.94 843 24.89 2.5 36.6 70 -2.3 27.8
03:40 1014 29.94 843 24.89 2.5 36.6 70 -2.4 27.6
03:45 1014 29.94 843 24.89 2.5 36.5 70 -2.4 27.7
03:50 1013 29.91 843 24.89 2.4 36.4 70 -2.6 27.4
03:55 1014 29.94 843 24.89 2.4 36.4 69 -2.6 27.2
04:00 1014 29.94 843 24.89 2.4 36.3 69 -2.7 27.1
04:05 1014 29.94 843 24.89 2.4 36.3 68 -2.8 26.9
04:10 1014 29.94 843 24.89 2.4 36.2 69 -2.8 26.9
04:15 1014 29.94 843 24.89 2.3 36.2 69 -2.8 26.9
04:20 1014 29.94 843 24.89 2.3 36.1 69 -2.8 27
04:25 1014 29.94 843 24.89 2.2 36 69 -2.8 27
04:30 1013 29.91 843 24.89 2.2 36 70 -2.6 27.3
04:35 1013 29.91 843 24.89 2.2 35.9 71 -2.6 27.4
04:40 1013 29.91 843 24.89 2.1 35.9 70 -2.7 27.2
04:45 1014 29.94 843 24.89 2.2 35.9 70 -2.7 27.1
04:50 1014 29.94 843 24.89 2.1 35.8 70 -2.8 26.9
04:55 1014 29.94 843 24.89 2.1 35.8 70 -2.8 27
05:00 1014 29.94 843 24.89 2.1 35.8 69 -3 26.7
05:05 1014 29.94 843 24.89 2.1 35.8 69 -3 26.7
05:10 1014 29.94 843 24.89 2.1 35.8 70 -2.9 26.9
05:15 1014 29.94 843 24.89 2.1 35.7 70 -2.9 26.7
05:20 1014 29.94 843 24.89 2.1 35.8 69 -3 26.6
05:25 1013 29.91 843 24.89 2.1 35.8 69 -3 26.6
05:30 1013 29.91 843 24.89 2.1 35.8 70 -2.9 26.9
05:35 1014 29.94 843 24.89 2 35.7 70 -2.8 26.9
05:40 1013 29.91 843 24.89 2 35.7 70 -2.8 26.9
05:45 1013 29.91 843 24.89 2 35.6 70 -2.8 26.9
05:50 1014 29.94 843 24.89 2 35.6 69 -3.1 26.3
05:55 1014 29.94 843 24.89 2.1 35.7 69 -3 26.7
06:00 1014 29.94 843 24.89 2 35.6 70 -2.9 26.8
06:05 1014 29.94 843 24.89 1.9 35.5 72 -2.7 27.2
06:10 1014 29.94 843 24.89 1.9 35.3 72 -2.7 27.1
06:15 1014 29.94 843 24.89 1.8 35.3 72 -2.8 27
06:20 1014 29.94 843 24.89 1.8 35.3 71 -2.8 26.9
06:25 1014 29.94 843 24.89 1.8 35.3 70 -3 26.5
06:30 1014 29.94 843 24.89 1.8 35.2 70 -3.1 26.4
06:35 1014 29.94 843 24.89 1.8 35.2 70 -3.1 26.5
06:40 1014 29.94 843 24.89 1.7 35.1 69 -3.3 26
06:45 1014 29.94 843 24.89 1.7 35 70 -3.2 26.2
06:50 1014 29.94 843 24.89 1.6 35 69 -3.4 25.9
06:55 1014 29.94 843 24.89 1.7 35 69 -3.3 26
07:00 1014 29.94 843 24.89 1.6 34.9 69 -3.4 25.8
07:05 1014 29.94 843 24.89 1.7 35 68 -3.6 25.6
07:10 1014 29.94 843 24.89 1.7 35 68 -3.6 25.5
07:15 1014 29.94 843 24.89 1.7 35 68 -3.6 25.6
07:20 1014 29.94 843 24.89 1.7 35 67 -3.8 25.2
07:25 1014 29.94 843 24.89 1.7 35.1 66 -3.9 24.9
07:30 1014 29.94 843 24.89 1.8 35.2 66 -4 24.9
07:35 1014 29.94 843 24.89 1.8 35.2 66 -3.9 24.9
07:40 1014 29.94 843 24.89 1.8 35.2 66 -3.9 24.9
07:45 1014 29.94 843 24.89 1.7 35.1 66 -4 24.8
07:50 1014 29.94 843 24.89 1.8 35.2 66 -4 24.9
07:55 1014 29.94 843 24.89 1.8 35.2 66 -4 24.8
08:00 1014 29.94 843 24.89 1.8 35.2 66 -3.9 25.1
08:05 1014 29.94 843 24.89 1.7 35.1 67 -3.8 25.2
08:10 1014 29.94 843 24.89 1.7 35.1 67 -3.7 25.3
08:15 1014 29.94 843 24.89 1.7 35 68 -3.6 25.6
08:20 1014 29.94 843 24.89 1.7 35 68 -3.6 25.6
08:25 1014 29.94 843 24.89 1.6 35 68 -3.7 25.4
08:30 1014 29.94 843 24.89 1.7 35.1 67 -3.7 25.3
08:35 1014 29.94 843 24.89 1.7 35.1 67 -3.6 25.4
08:40 1014 29.94 843 24.89 1.7 35.1 68 -3.6 25.5
08:45 1014 29.94 843 24.89 1.7 35 68 -3.6 25.5
08:50 1014 29.94 843 24.89 1.6 34.9 68 -3.6 25.5
08:55 1014 29.94 843 24.89 1.6 34.9 68 -3.7 25.3
09:00 1014 29.94 843 24.89 1.6 34.9 68 -3.7 25.3
09:05 1014 29.94 843 24.89 1.7 35 67 -3.7 25.3
09:10 1014 29.94 843 24.89 1.7 35 68 -3.5 25.6
09:15 1014 29.94 843 24.89 1.7 35.1 68 -3.6 25.5
09:20 1014 29.94 843 24.89 1.8 35.2 66 -3.8 25.1
09:25 1014 29.94 843 24.89 1.9 35.4 66 -3.9 25
09:30 1014 29.94 843 24.89 1.9 35.4 66 -3.9 25
09:35 1014 29.94 843 24.89 1.9 35.4 66 -3.8 25.1
09:40 1014 29.94 843 24.89 1.9 35.5 66 -3.8 25.1
09:45 1014 29.94 843 24.89 1.9 35.5 66 -3.8 25.2
09:50 1014 29.94 843 24.89 1.9 35.5 66 -3.8 25.2
09:55 1014 29.94 843 24.89 2 35.6 68 -3.3 26
10:00 1014 29.94 843 24.89 2.1 35.8 67 -3.4 25.8
10:05 1014 29.94 843 24.89 2.5 36.5 66 -3.2 26.2
10:10 1014 29.94 843 24.89 2.6 36.6 65 -3.3 26.1
10:15 1014 29.94 843 24.89 2.7 36.9 66 -3 26.6
10:20 1014 29.94 843 24.89 2.7 36.9 66 -3 26.6
10:25 1014 29.94 843 24.89 2.7 36.9 66 -3 26.7
10:30 1014 29.94 843 24.89 2.6 36.6 73 -1.8 28.7
10:35 1014 29.94 843 24.89 1.8 35.3 74 -2.4 27.8
10:40 1014 29.94 843 24.89 1.8 35.2 77 -1.9 28.7
10:45 1014 29.94 843 24.89 1.9 35.4 76 -1.9 28.5
10:50 1014 29.94 843 24.89 1.9 35.5 74 -2.2 28
10:55 1014 29.94 843 24.89 2.4 36.4 70 -2.4 27.7
11:00 1014 29.94 843 24.89 2.5 36.6 68 -2.7 27.2
11:05 1014 29.94 843 24.89 2.6 36.6 68 -2.7 27.2
11:10 1014 29.94 843 24.89 2.1 35.8 72 -2.5 27.5
11:15 1014 29.94 843 24.89 1.9 35.5 72 -2.6 27.3
11:20 1014 29.94 843 24.89 2 35.6 70 -2.9 26.7
11:25 1014 29.94 843 24.89 2.1 35.7 68 -3.3 26.1
11:30 1014 29.94 843 24.89 2.4 36.2 65 -3.5 25.7
11:35 1014 29.94 843 24.89 2.8 37.1 64 -3.2 26.2
11:40 1014 29.94 843 24.89 2.7 36.9 65 -3.2 26.2
11:45 1014 29.94 843 24.89 2.7 36.9 65 -3.3 26.1
11:50 1014 29.94 843 24.89 2.7 36.8 66 -2.9 26.7
11:55 1014 29.94 843 24.89 2.7 36.9 67 -2.9 26.8
12:00 1014 29.94 843 24.89 2.6 36.6 71 -2.2 28
12:05 1014 29.94 843 24.89 2.4 36.4 69 -2.6 27.3
12:10 1013 29.91 843 24.89 2.6 36.7 67 -2.9 26.8
12:15 1013 29.91 842 24.86 2.7 36.9 68 -2.6 27.3
12:20 1013 29.91 843 24.89 2.7 36.9 71 -2 28.3
12:25 1013 29.91 843 24.89 2.4 36.4 72 -2.1 28.2
12:30 1013 29.91 843 24.89 2.5 36.5 71 -2.3 27.9
12:35 1013 29.91 843 24.89 2.7 36.9 66 -3 26.7
12:40 1013 29.91 843 24.89 2.9 37.2 66 -2.9 26.8
12:45 1013 29.91 843 24.89 2.8 37.1 68 -2.5 27.5
12:50 1013 29.91 843 24.89 2.6 36.7 67 -2.8 26.9
12:55 1013 29.91 843 24.89 2.4 36.4 66 -3.2 26.2
13:00 1013 29.91 843 24.89 2.4 36.3 68 -3 26.6
13:05 1014 29.94 843 24.89 2.3 36.2 69 -2.7 27.2
13:10 1014 29.94 843 24.89 2.3 36.1 70 -2.7 27.2
13:15 1013 29.91 843 24.89 2.1 35.8 71 -2.7 27.2
13:20 1014 29.94 843 24.89 1.9 35.4 73 -2.3 27.8
13:25 1014 29.94 843 24.89 1.8 35.2 71 -2.8 26.9
13:30 1014 29.94 843 24.89 2 35.6 71 -2.6 27.2
13:35 1014 29.94 843 24.89 1.9 35.4 72 -2.6 27.2
13:40 1013 29.91 843 24.89 1.9 35.4 71 -2.8 27
13:45 1013 29.91 842 24.86 2.2 35.9 69 -2.9 26.8
13:50 1013 29.91 842 24.86 2.1 35.8 69 -2.9 26.8
13:55 1013 29.91 842 24.86 2.1 35.8 69 -2.9 26.8
14:00 1013 29.91 842 24.86 2.1 35.7 70 -2.9 26.9
14:05 1013 29.91 842 24.86 2.2 36 69 -2.8 27
14:10 1013 29.91 842 24.86 2.4 36.3 68 -2.8 26.9
14:15 1013 29.91 842 24.86 2.4 36.3 69 -2.7 27.2
14:20 1013 29.91 842 24.86 2.4 36.3 71 -2.4 27.6
14:25 1013 29.91 842 24.86 2.2 36 72 -2.3 27.9
14:30 1013 29.91 842 24.86 2.2 36 71 -2.5 27.6
14:35 1013 29.91 842 24.86 2.2 35.9 72 -2.3 27.8
14:40 1013 29.91 842 24.86 2.2 35.9 71 -2.4 27.6
14:45 1013 29.91 842 24.86 2.1 35.8 74 -2 28.4
14:50 1013 29.91 842 24.86 1.9 35.4 75 -2 28.4
14:55 1013 29.91 842 24.86 2 35.6 75 -2 28.4
15:00 1013 29.91 842 24.86 2 35.6 72 -2.4 27.6
15:05 1013 29.91 842 24.86 2 35.5 72 -2.5 27.5
15:10 1013 29.91 842 24.86 1.9 35.5 72 -2.5 27.4
15:15 1013 29.91 842 24.86 1.9 35.3 73 -2.5 27.6
15:20 1013 29.91 842 24.86 1.8 35.3 73 -2.5 27.5
15:25 1013 29.91 842 24.86 1.9 35.4 75 -2.1 28.2
15:30 1013 29.91 842 24.86 1.7 35 75 -2.3 27.8
15:35 1013 29.91 842 24.86 1.6 34.9 75 -2.4 27.6
15:40 1013 29.91 842 24.86 1.6 34.8 75 -2.4 27.7
15:45 1013 29.91 842 24.86 1.5 34.8 75 -2.4 27.7
15:50 1013 29.91 842 24.86 1.5 34.7 77 -2.2 28.1
15:55 1013 29.91 842 24.86 1.5 34.7 78 -1.9 28.6
16:00 1013 29.91 842 24.86 1.3 34.3 83 -1.3 29.6
16:05 1013 29.91 842 24.86 1 33.8 85 -1.2 29.8
16:10 1013 29.91 842 24.86 1 33.8 82 -1.7 28.9
16:15 1013 29.91 842 24.86 1.2 34.2 78 -2.2 28.1
16:20 1013 29.91 842 24.86 1.4 34.5 77 -2.3 27.9
16:25 1013 29.91 842 24.86 1.4 34.6 77 -2.2 28
16:30 1013 29.91 842 24.86 1.4 34.6 78 -2 28.3
16:35 1013 29.91 842 24.86 1.4 34.5 78 -2 28.3
16:40 1013 29.91 842 24.86 1.4 34.6 78 -2.1 28.3
16:45 1013 29.91 842 24.86 1.4 34.5 79 -1.8 28.8
16:50 1013 29.91 842 24.86 1.3 34.4 79 -2 28.5
16:55 1013 29.91 842 24.86 1.4 34.5 80 -1.7 28.9
17:00 1013 29.91 842 24.86 1.3 34.4 80 -1.8 28.8
17:05 1013 29.91 842 24.86 1.3 34.3 80 -1.8 28.7
17:10 1013 29.91 842 24.86 1.4 34.5 78 -2.1 28.3
17:15 1013 29.91 842 24.86 1.4 34.5 79 -1.9 28.6
17:20 1013 29.91 842 24.86 1.4 34.5 80 -1.8 28.8
17:25 1013 29.91 842 24.86 1.3 34.4 81 -1.5 29.3
17:30 1013 29.91 842 24.86 1.3 34.3 83 -1.4 29.5
17:35 1013 29.91 842 24.86 1.1 34 85 -1.2 29.8
17:40 1013 29.91 842 24.86 1 33.7 87 -1 30.3
17:45 1013 29.91 843 24.89 0.8 33.4 88 -0.9 30.4
17:50 1013 29.91 843 24.89 0.7 33.3 90 -0.8 30.6
17:55 1013 29.91 843 24.89 0.6 33 90 -0.8 30.5
18:00 1013 29.91 843 24.89 0.5 32.9 91 -0.8 30.5
18:05 1013 29.91 843 24.89 0.5 32.9 92 -0.7 30.7
18:10 1014 29.94 843 24.89 0.4 32.8 91 -0.8 30.5
18:15 1014 29.94 843 24.89 0.4 32.8 91 -0.9 30.4
18:20 1014 29.94 843 24.89 0.4 32.8 91 -0.9 30.3
18:25 1014 29.94 843 24.89 0.4 32.8 90 -1 30.2
18:30 1014 29.94 843 24.89 0.4 32.7 90 -1.1 30.1
18:35 1014 29.94 843 24.89 0.5 32.9 90 -1 30.2
18:40 1014 29.94 843 24.89 0.5 32.9 90 -1 30.2
18:45 1014 29.94 843 24.89 0.5 32.8 90 -1 30.3
18:50 1014 29.94 843 24.89 0.5 32.9 90 -1 30.1
18:55 1014 29.94 843 24.89 0.4 32.8 89 -1.1 30
19:00 1014 29.94 843 24.89 0.4 32.7 88 -1.3 29.6
19:05 1014 29.94 843 24.89 0.5 32.8 87 -1.5 29.4
19:10 1014 29.94 843 24.89 0.5 32.8 88 -1.3 29.7
19:15 1014 29.94 843 24.89 0.4 32.7 90 -1.1 30
19:20 1014 29.94 843 24.89 0.3 32.5 91 -0.9 30.3
19:25 1014 29.94 843 24.89 0.2 32.3 92 -0.9 30.3
19:30 1014 29.94 843 24.89 0.1 32.1 94 -0.8 30.5
19:35 1014 29.94 843 24.89 0 32 94 -0.8 30.6
19:40 1014 29.94 843 24.89 -0 32 95 -0.7 30.7
19:45 1014 29.94 843 24.89 -0.1 31.9 96 -0.7 30.8
19:50 1014 29.94 843 24.89 -0.1 31.8 96 -0.6 30.9
19:55 1014 29.94 843 24.89 -0.1 31.8 97 -0.6 30.9
20:00 1014 29.94 843 24.89 -0.1 31.8 97 -0.6 31
20:05 1014 29.94 843 24.89 -0.1 31.8 97 -0.5 31.1
20:10 1014 29.94 843 24.89 -0.1 31.8 97 -0.5 31.1
20:15 1014 29.94 843 24.89 -0.1 31.8 98 -0.5 31.2
20:20 1014 29.94 843 24.89 -0.1 31.8 98 -0.4 31.2
20:25 1014 29.94 843 24.89 -0.1 31.8 98 -0.4 31.2
20:30 1014 29.94 843 24.89 -0.2 31.7 98 -0.4 31.2
20:35 1014 29.94 843 24.89 -0.2 31.7 98 -0.4 31.2
20:40 1014 29.94 843 24.89 -0.2 31.7 98 -0.4 31.2
20:45 1014 29.94 843 24.89 -0.2 31.7 98 -0.4 31.3
20:50 1014 29.94 843 24.89 -0.2 31.6 99 -0.4 31.3
20:55 1014 29.94 843 24.89 -0.2 31.6 99 -0.4 31.3
21:00 1014 29.94 843 24.89 -0.2 31.7 99 -0.4 31.3
21:05 1014 29.94 843 24.89 -0.2 31.7 99 -0.4 31.4
21:10 1014 29.94 843 24.89 -0.2 31.7 99 -0.3 31.4
21:15 1014 29.94 843 24.89 -0.1 31.8 99 -0.3 31.4
21:20 1014 29.94 843 24.89 -0.1 31.7 99 -0.3 31.4
21:25 1014 29.94 843 24.89 -0.1 31.8 99 -0.3 31.4
21:30 1014 29.94 843 24.89 -0.1 31.9 99 -0.2 31.6
21:35 1014 29.94 843 24.89 0 32 99 -0.2 31.7
21:40 1014 29.94 843 24.89 -0 31.9 99 -0.2 31.6
21:45 1014 29.94 843 24.89 -0.1 31.9 99 -0.3 31.5
21:50 1014 29.94 843 24.89 -0.1 31.9 99 -0.3 31.5
21:55 1014 29.94 843 24.89 -0.1 31.8 99 -0.3 31.4
22:00 1014 29.94 843 24.89 -0.2 31.7 99 -0.3 31.4
22:05 1014 29.94 843 24.89 -0.1 31.7 99 -0.3 31.4
22:10 1014 29.94 843 24.89 -0.2 31.7 99 -0.3 31.4
22:15 1014 29.94 843 24.89 -0.2 31.6 99 -0.4 31.2
22:20 1014 29.94 843 24.89 -0.3 31.5 99 -0.5 31.1
22:25 1014 29.94 843 24.89 -0.3 31.4 98 -0.5 31
22:30 1014 29.94 843 24.89 -0.4 31.4 98 -0.6 31
22:35 1014 29.94 843 24.89 -0.4 31.3 99 -0.6 30.9
22:40 1014 29.94 843 24.89 -0.4 31.3 99 -0.6 30.9
22:45 1014 29.94 843 24.89 -0.4 31.3 98 -0.6 30.9
22:50 1014 29.94 843 24.89 -0.4 31.2 99 -0.7 30.8
22:55 1014 29.94 843 24.89 -0.5 31.2 98 -0.7 30.8
23:00 1014 29.94 843 24.89 -0.5 31.1 98 -0.7 30.7
23:05 1014 29.94 843 24.89 -0.5 31.2 98 -0.7 30.7
23:10 1014 29.94 843 24.89 -0.4 31.3 98 -0.7 30.7
23:15 1014 29.94 843 24.89 -0.4 31.3 98 -0.8 30.6
23:20 1014 29.94 844 24.92 -0.4 31.3 97 -0.8 30.6
23:25 1014 29.94 844 24.92 -0.4 31.3 97 -0.8 30.6
23:30 1014 29.94 843 24.89 -0.4 31.3 98 -0.7 30.7
23:35 1014 29.94 843 24.89 -0.4 31.3 98 -0.8 30.6
23:40 1014 29.94 843 24.89 -0.4 31.3 98 -0.8 30.6
23:45 1014 29.94 843 24.89 -0.4 31.3 97 -0.8 30.6
23:50 1014 29.94 843 24.89 -0.4 31.3 97 -0.8 30.5
23:55 1014 29.94 843 24.89 -0.4 31.4 97 -0.8 30.5
24:00 1014 29.94 843 24.89 -0.4 31.4 96 -0.9 30.4